Ana Sayfa
METAR-TAF:

METAR-TAF

Havaalanları :

Nalçik Havalimanı

Nalçik, Rusya

Enlem: 43-30-46N, Boylam: 043-38-12E, yükseklik: 445 m

Güncel hava durumu gözlemi

Rapor saat 15:30 UTC de 21 dakika önce yapıldı.
Rüzgar batı/kuzeybatıdan 2 kt
Sıcaklık 17°C
Nem 82%
Basınç 1020 hPa
Görüş mesafesi 10 km veya daha fazla
2400 ft yükseklikte çok bulutlu, Kümülonimbus.

METAR: URMN 261530Z 29001MPS 9999 OVC024CB 17/14 Q1020 R24/210155 NOSIG RMK QFE728

Saat: 18:51 (15:51 UTC)


TAF: eksik

4.000'den fazla havaalanı için hava durumu gözlemleri ve tahminleri (METAR ve TAF raporları).

Kullanılabilir istasyonlar harita üzerinde sarı ve kırmızı noktalarla gösterilir.

İstasyonun adını görmek için fareyi noktanın üzerinde gezdirin.

Sonrasında hava gözlem ve tahminlerini görmek için tıklayın.

Haritayı değiştirmek için: yaklaştırmak için siyah artı işaretli yeşil düğmeye ve uzaklaştırmak için de eksi işaretli düğmeye hızla tıklayın; bitişik haritalar için yeşil okları kullanın.


METAR-TAF: